createdAt,value
2022-08-17T00:01:51.994Z,79.20
2022-08-17T00:06:00.535Z,79.60
2022-08-17T00:10:03.374Z,79.60
2022-08-17T00:14:10.979Z,80.00
2022-08-17T00:19:00.972Z,80.00
2022-08-17T00:22:38.610Z,79.80
2022-08-17T00:26:45.402Z,80.30
2022-08-17T00:30:53.407Z,80.90
2022-08-17T00:34:56.585Z,81.00
2022-08-17T00:39:00.973Z,81.40
2022-08-17T00:43:13.467Z,81.60
2022-08-17T00:47:16.254Z,81.60
2022-08-17T00:51:24.154Z,81.80
2022-08-17T00:55:28.880Z,81.80
2022-08-17T00:59:36.143Z,81.80
2022-08-17T01:03:40.048Z,81.80
2022-08-17T01:07:44.323Z,81.20
2022-08-17T01:11:52.108Z,81.10
2022-08-17T01:16:00.720Z,81.80
2022-08-17T01:20:04.680Z,82.50
2022-08-17T01:24:09.234Z,82.30
2022-08-17T01:28:12.051Z,82.70
2022-08-17T01:32:34.966Z,82.70
2022-08-17T01:36:38.328Z,82.90
2022-08-17T01:40:49.324Z,82.60
2022-08-17T01:45:05.839Z,83.20
2022-08-17T01:49:11.363Z,83.30
2022-08-17T01:53:17.536Z,83.60
2022-08-17T01:57:21.654Z,83.90
2022-08-17T02:01:31.534Z,83.70
2022-08-17T02:05:35.178Z,83.40
2022-08-17T02:09:37.966Z,84.10
2022-08-17T02:13:48.532Z,84.00
2022-08-17T02:17:58.038Z,83.90
2022-08-17T02:22:00.814Z,83.90
2022-08-17T02:26:04.077Z,84.40
2022-08-17T02:31:00.117Z,84.80
2022-08-17T02:34:34.756Z,84.70
2022-08-17T02:38:38.391Z,84.20
2022-08-17T02:42:43.961Z,84.70
2022-08-17T02:46:48.053Z,84.60
2022-08-17T02:50:51.045Z,85.50
2022-08-17T02:54:53.814Z,85.70
2022-08-17T02:58:56.595Z,86.00
2022-08-17T03:03:01.969Z,86.00
2022-08-17T03:07:06.639Z,86.20
2022-08-17T03:11:10.363Z,86.40
2022-08-17T03:15:16.557Z,85.90
2022-08-17T03:19:20.693Z,85.20
2022-08-17T03:23:25.285Z,85.10
2022-08-17T03:27:28.384Z,85.70
2022-08-17T03:31:31.411Z,86.10
2022-08-17T03:35:37.578Z,86.00
2022-08-17T03:39:40.568Z,86.50
2022-08-17T03:43:43.451Z,86.40
2022-08-17T03:48:03.979Z,87.00
2022-08-17T03:52:25.650Z,87.40
2022-08-17T03:56:43.634Z,87.40
2022-08-17T04:00:46.554Z,87.00
2022-08-17T04:04:51.248Z,87.20
2022-08-17T04:08:55.548Z,87.50
2022-08-17T04:12:59.148Z,88.00
2022-08-17T04:17:01.986Z,87.80
2022-08-17T04:21:04.940Z,88.00
2022-08-17T04:25:18.098Z,87.90
2022-08-17T04:29:21.313Z,88.10
2022-08-17T04:33:26.217Z,87.80
2022-08-17T04:37:29.039Z,87.90
2022-08-17T04:41:51.135Z,87.80
2022-08-17T04:45:57.173Z,87.70
2022-08-17T04:50:02.373Z,87.90
2022-08-17T04:54:07.887Z,87.80
2022-08-17T04:58:14.661Z,87.60
2022-08-17T05:02:17.467Z,88.00
2022-08-17T05:06:20.459Z,87.70
2022-08-17T05:10:23.508Z,87.40
2022-08-17T05:14:33.433Z,86.90
2022-08-17T05:18:38.727Z,87.60
2022-08-17T05:22:51.147Z,86.90
2022-08-17T05:26:54.166Z,86.60
2022-08-17T05:31:02.166Z,86.80
2022-08-17T05:35:06.216Z,86.90
2022-08-17T05:39:08.985Z,86.90
2022-08-17T05:43:20.709Z,86.60
2022-08-17T05:47:27.068Z,86.90
2022-08-17T05:51:56.544Z,85.90
2022-08-17T05:56:22.682Z,86.40
2022-08-17T06:00:42.149Z,86.30
2022-08-17T06:05:02.101Z,86.00
2022-08-17T06:09:15.111Z,84.80
2022-08-17T06:13:27.831Z,84.00
2022-08-17T06:17:31.101Z,84.10
2022-08-17T06:21:39.053Z,84.30
2022-08-17T06:25:46.358Z,83.50
2022-08-17T06:29:54.415Z,82.60
2022-08-17T06:33:59.108Z,83.50
2022-08-17T06:38:21.813Z,80.20
2022-08-17T06:42:54.861Z,77.80
2022-08-17T06:47:10.443Z,78.00
2022-08-17T06:51:19.557Z,77.60
2022-08-17T06:55:32.184Z,75.70
2022-08-17T06:59:47.245Z,75.60
2022-08-17T07:04:11.896Z,74.70
2022-08-17T07:08:20.697Z,74.30
2022-08-17T07:12:31.407Z,73.00
2022-08-17T07:16:41.900Z,72.60
2022-08-17T07:20:51.415Z,71.50
2022-08-17T07:24:58.454Z,70.40
2022-08-17T07:29:03.255Z,68.80
2022-08-17T07:33:13.372Z,65.50
2022-08-17T07:37:20.487Z,64.20
2022-08-17T07:41:23.304Z,64.60
2022-08-17T07:45:45.246Z,64.30
2022-08-17T07:49:51.323Z,63.00
2022-08-17T07:54:09.144Z,63.00
2022-08-17T07:58:18.805Z,62.80
2022-08-17T08:02:31.723Z,63.60
2022-08-17T08:06:49.523Z,61.10
2022-08-17T08:11:02.263Z,59.40
2022-08-17T08:15:13.216Z,58.70
2022-08-17T08:19:20.979Z,59.30
2022-08-17T08:23:46.277Z,56.90
2022-08-17T08:28:01.428Z,55.50
2022-08-17T08:32:11.249Z,54.90
2022-08-17T08:37:14.200Z,54.10
2022-08-17T08:41:05.072Z,53.80
2022-08-17T08:45:16.361Z,51.60
2022-08-17T08:50:01.867Z,51.10
2022-08-17T08:54:06.922Z,50.40
2022-08-17T08:58:31.538Z,50.80
2022-08-17T09:03:02.566Z,49.30
2022-08-17T09:07:30.165Z,47.90
2022-08-17T09:12:02.893Z,47.20
2022-08-17T09:16:11.325Z,46.40
2022-08-17T09:20:28.082Z,45.70
2022-08-17T09:24:36.407Z,44.60
2022-08-17T09:28:45.710Z,44.90
2022-08-17T09:32:55.355Z,44.60
2022-08-17T09:37:04.733Z,44.00
2022-08-17T09:41:15.458Z,43.70
2022-08-17T09:45:32.884Z,42.90
2022-08-17T09:49:42.637Z,42.50
2022-08-17T09:53:45.526Z,42.50
2022-08-17T09:57:58.862Z,42.00
2022-08-17T10:02:40.842Z,42.70
2022-08-17T10:06:53.152Z,43.40
2022-08-17T10:11:07.723Z,43.80
2022-08-17T10:15:23.318Z,43.80
2022-08-17T10:19:36.623Z,44.60
2022-08-17T10:24:02.601Z,45.30
2022-08-17T10:28:14.250Z,44.60
2022-08-17T10:32:32.154Z,44.70
2022-08-17T10:36:48.002Z,44.90
2022-08-17T10:40:58.475Z,45.10
2022-08-17T10:45:07.751Z,45.70
2022-08-17T10:49:26.705Z,45.50
2022-08-17T10:53:56.716Z,45.00
2022-08-17T10:58:20.973Z,45.40
2022-08-17T11:02:28.107Z,45.20
2022-08-17T11:06:41.877Z,46.30
2022-08-17T11:11:07.452Z,46.90
2022-08-17T11:15:30.878Z,46.90
2022-08-17T11:20:08.652Z,46.60
2022-08-17T11:24:19.058Z,46.60
2022-08-17T11:28:25.386Z,46.50
2022-08-17T11:32:33.082Z,46.50
2022-08-17T11:37:03.421Z,46.90
2022-08-17T11:41:20.890Z,46.80
2022-08-17T11:45:39.678Z,47.60
2022-08-17T11:50:16.680Z,47.10
2022-08-17T11:54:42.564Z,47.80
2022-08-17T11:58:45.925Z,47.50
2022-08-17T12:03:28.638Z,47.10
2022-08-17T12:07:34.363Z,47.50
2022-08-17T12:12:04.669Z,47.70
2022-08-17T12:16:07.159Z,47.80
2022-08-17T12:20:14.907Z,47.60
2022-08-17T12:24:29.209Z,47.70
2022-08-17T12:28:36.079Z,47.50
2022-08-17T12:32:40.535Z,48.70
2022-08-17T12:36:44.823Z,48.30
2022-08-17T12:40:58.026Z,48.30
2022-08-17T12:45:01.486Z,48.00
2022-08-17T12:49:15.721Z,48.10
2022-08-17T12:53:22.988Z,47.80
2022-08-17T12:57:27.879Z,47.60
2022-08-17T13:01:34.944Z,47.90
2022-08-17T13:05:40.497Z,47.70
2022-08-17T13:09:52.151Z,47.90
2022-08-17T13:13:56.759Z,47.70
2022-08-17T13:18:04.881Z,47.90
2022-08-17T13:22:12.327Z,48.30
2022-08-17T13:26:17.465Z,49.00
2022-08-17T13:30:24.772Z,50.00
2022-08-17T13:34:49.580Z,51.50
2022-08-17T13:39:09.572Z,52.60
2022-08-17T13:43:33.709Z,53.40
2022-08-17T13:47:37.778Z,54.90
2022-08-17T13:51:44.853Z,55.50
2022-08-17T13:55:49.909Z,57.20
2022-08-17T14:00:17.144Z,57.10
2022-08-17T14:04:24.623Z,57.40
2022-08-17T14:08:30.712Z,56.90
2022-08-17T14:12:35.673Z,56.90
2022-08-17T14:16:41.517Z,56.30
2022-08-17T14:20:45.719Z,56.70
2022-08-17T14:24:48.487Z,54.70
2022-08-17T14:28:56.517Z,51.80
2022-08-17T14:33:02.041Z,50.90
2022-08-17T14:37:06.225Z,48.80
2022-08-17T14:41:09.371Z,48.30
2022-08-17T14:45:29.719Z,47.80
2022-08-17T14:49:36.245Z,47.90
2022-08-17T14:53:42.598Z,47.90
2022-08-17T14:57:46.122Z,47.30
2022-08-17T15:01:49.100Z,47.50
2022-08-17T15:05:51.959Z,47.20
2022-08-17T15:09:56.632Z,48.00
2022-08-17T15:14:00.085Z,46.70
2022-08-17T15:18:03.719Z,46.00
2022-08-17T15:22:06.860Z,44.10
2022-08-17T15:26:11.329Z,44.50
2022-08-17T15:30:15.161Z,43.40
2022-08-17T15:34:18.202Z,41.80
2022-08-17T15:38:21.991Z,41.40
2022-08-17T15:42:26.705Z,40.60
2022-08-17T15:46:29.752Z,41.00
2022-08-17T15:50:32.786Z,41.20
2022-08-17T15:54:36.075Z,41.50
2022-08-17T15:58:43.699Z,41.70
2022-08-17T16:03:16.042Z,42.50
2022-08-17T16:07:11.207Z,42.70
2022-08-17T16:11:15.508Z,43.20
2022-08-17T16:15:21.232Z,43.80
2022-08-17T16:19:24.149Z,44.20
2022-08-17T16:23:27.101Z,44.90
2022-08-17T16:27:30.045Z,45.20
2022-08-17T16:31:34.264Z,46.20
2022-08-17T16:35:37.105Z,45.70
2022-08-17T16:39:40.530Z,45.50
2022-08-17T16:43:45.659Z,44.10
2022-08-17T16:47:50.410Z,43.90
2022-08-17T16:51:53.334Z,43.60
2022-08-17T16:55:56.501Z,43.30
2022-08-17T16:59:59.305Z,43.80
2022-08-17T17:04:06.385Z,44.10
2022-08-17T17:08:13.473Z,44.70
2022-08-17T17:12:19.743Z,44.40
2022-08-17T17:16:46.202Z,44.70
2022-08-17T17:20:56.434Z,45.90
2022-08-17T17:25:07.765Z,45.90
2022-08-17T17:29:27.661Z,46.20
2022-08-17T17:33:36.535Z,47.70
2022-08-17T17:37:43.677Z,48.00
2022-08-17T17:41:52.222Z,48.30
2022-08-17T17:45:58.555Z,49.30
2022-08-17T17:50:32.983Z,50.30
2022-08-17T17:54:48.897Z,50.10
2022-08-17T17:58:56.077Z,51.10
2022-08-17T18:03:13.340Z,49.30
2022-08-17T18:07:24.320Z,50.20
2022-08-17T18:12:05.895Z,50.90
2022-08-17T18:16:15.172Z,51.60
2022-08-17T18:20:35.925Z,52.00
2022-08-17T18:24:48.796Z,52.70
2022-08-17T18:28:52.814Z,53.20
2022-08-17T18:33:23.121Z,54.30
2022-08-17T18:37:39.325Z,55.70
2022-08-17T18:41:44.055Z,56.60
2022-08-17T18:45:48.946Z,57.40
2022-08-17T18:49:57.469Z,58.00
2022-08-17T18:54:13.454Z,58.20
2022-08-17T18:58:20.672Z,58.80
2022-08-17T19:02:43.835Z,59.50
2022-08-17T19:07:21.810Z,59.80
2022-08-17T19:11:30.009Z,60.50
2022-08-17T19:15:36.413Z,61.30
2022-08-17T19:19:53.140Z,61.30
2022-08-17T19:24:05.917Z,61.80
2022-08-17T19:28:22.349Z,62.70
2022-08-17T19:32:28.793Z,63.10
2022-08-17T19:36:39.572Z,64.40
2022-08-17T19:40:58.595Z,64.60
2022-08-17T19:45:08.799Z,65.30
2022-08-17T19:49:22.327Z,66.50
2022-08-17T19:54:04.411Z,66.70
2022-08-17T19:58:17.903Z,67.80
2022-08-17T20:02:28.807Z,67.40
2022-08-17T20:06:35.634Z,68.50
2022-08-17T20:10:48.128Z,69.30
2022-08-17T20:15:05.173Z,70.40
2022-08-17T20:19:13.165Z,71.00
2022-08-17T20:23:30.527Z,71.40
2022-08-17T20:27:37.010Z,71.80
2022-08-17T20:31:44.626Z,72.60
2022-08-17T20:36:04.832Z,73.30
2022-08-17T20:40:25.854Z,73.50
2022-08-17T20:44:33.630Z,74.00
2022-08-17T20:48:42.792Z,74.60
2022-08-17T20:52:52.812Z,75.20
2022-08-17T20:56:58.510Z,75.50
2022-08-17T21:01:13.133Z,76.70
2022-08-17T21:05:38.321Z,76.70
2022-08-17T21:09:41.246Z,77.40
2022-08-17T21:14:06.627Z,77.50
2022-08-17T21:18:19.612Z,78.30
2022-08-17T21:22:38.358Z,78.40
2022-08-17T21:26:51.124Z,79.10
2022-08-17T21:30:58.358Z,79.10
2022-08-17T21:35:26.078Z,79.30
2022-08-17T21:39:40.446Z,79.80
2022-08-17T21:43:49.984Z,79.40
2022-08-17T21:48:08.884Z,79.80
2022-08-17T21:52:15.092Z,80.50
2022-08-17T21:56:28.285Z,80.80
2022-08-17T22:00:33.089Z,81.20
2022-08-17T22:04:38.147Z,81.70
2022-08-17T22:08:41.012Z,81.80
2022-08-17T22:13:03.315Z,81.80
2022-08-17T22:17:24.965Z,82.00
2022-08-17T22:21:28.355Z,82.10
2022-08-17T22:25:33.182Z,82.70
2022-08-17T22:29:56.916Z,82.80
2022-08-17T22:34:11.028Z,83.30
2022-08-17T22:38:31.479Z,83.70
2022-08-17T22:42:36.311Z,84.10
2022-08-17T22:46:48.573Z,84.40
2022-08-17T22:50:52.475Z,84.70
2022-08-17T22:55:21.672Z,85.20
2022-08-17T22:59:39.810Z,85.70
2022-08-17T23:03:56.180Z,86.30
2022-08-17T23:07:59.032Z,86.90
2022-08-17T23:12:01.851Z,86.80
2022-08-17T23:16:05.110Z,87.30
2022-08-17T23:20:12.080Z,87.50
2022-08-17T23:24:20.453Z,88.10
2022-08-17T23:28:23.306Z,88.40
2022-08-17T23:32:26.471Z,88.90
2022-08-17T23:36:31.502Z,90.10
2022-08-17T23:40:34.679Z,89.20
2022-08-17T23:44:38.811Z,89.60
2022-08-17T23:48:42.031Z,90.00
2022-08-17T23:52:47.505Z,90.30
2022-08-17T23:56:50.650Z,90.40
